createdAt,value
2018-05-23T00:02:18.049Z,55750.91
2018-05-23T00:04:46.490Z,55738.57
2018-05-23T00:07:15.602Z,55758.11
2018-05-23T00:09:43.985Z,55738.57
2018-05-23T00:12:12.352Z,55761.20
2018-05-23T00:14:40.695Z,55742.69
2018-05-23T00:17:09.038Z,55763.25
2018-05-23T00:19:37.438Z,55746.80
2018-05-23T00:22:05.824Z,55747.83
2018-05-23T00:24:34.212Z,55730.35
2018-05-23T00:27:02.591Z,55729.32
2018-05-23T00:29:31.801Z,55736.52
2018-05-23T00:32:00.153Z,55748.86
2018-05-23T00:34:28.502Z,55742.69
2018-05-23T00:36:56.864Z,55742.69
2018-05-23T00:39:25.228Z,55754.00
2018-05-23T00:41:54.352Z,55734.46
2018-05-23T00:44:22.683Z,55747.83
2018-05-23T00:46:51.078Z,55745.77
2018-05-23T00:49:20.209Z,55740.63
2018-05-23T00:51:48.586Z,55740.63
2018-05-23T00:54:16.932Z,55740.63
2018-05-23T00:56:46.086Z,55760.17
2018-05-23T00:59:14.423Z,55755.02
2018-05-23T01:01:42.792Z,55762.22
2018-05-23T01:04:11.183Z,55755.02
2018-05-23T01:06:39.539Z,55739.60
2018-05-23T01:09:07.906Z,55762.22
2018-05-23T01:11:37.057Z,55771.48
2018-05-23T01:14:05.425Z,55760.17
2018-05-23T01:16:33.777Z,55775.59
2018-05-23T01:19:02.916Z,55730.35
2018-05-23T01:21:31.269Z,55761.20
2018-05-23T01:23:59.616Z,55745.77
2018-05-23T01:26:28.009Z,55710.82
2018-05-23T01:28:57.161Z,55720.07
2018-05-23T01:31:25.573Z,55740.63
2018-05-23T01:33:54.710Z,55738.57
2018-05-23T01:36:23.105Z,55767.36
2018-05-23T01:38:51.445Z,55755.02
2018-05-23T01:41:20.601Z,55779.70
2018-05-23T01:43:48.972Z,55724.18
2018-05-23T01:46:17.310Z,55774.56
2018-05-23T01:49:03.551Z,55740.63
2018-05-23T01:51:31.924Z,55776.62
2018-05-23T01:54:00.318Z,55759.14
2018-05-23T01:56:28.666Z,55737.55
2018-05-23T01:58:57.049Z,55739.60
2018-05-23T02:01:25.485Z,55730.35
2018-05-23T02:03:53.863Z,55779.70
2018-05-23T02:06:22.254Z,55765.31
2018-05-23T02:08:51.475Z,55771.48
2018-05-23T02:11:19.792Z,55734.46
2018-05-23T02:13:48.119Z,55769.42
2018-05-23T02:16:17.258Z,55754.00
2018-05-23T02:18:46.409Z,55780.73
2018-05-23T02:21:14.784Z,55736.52
2018-05-23T02:23:43.928Z,55778.67
2018-05-23T02:26:12.306Z,55759.14
2018-05-23T02:28:41.484Z,55787.93
2018-05-23T02:31:09.831Z,55778.67
2018-05-23T02:33:38.927Z,55782.79
2018-05-23T02:36:08.040Z,55794.10
2018-05-23T02:38:36.386Z,55806.43
2018-05-23T02:41:04.760Z,55789.98
2018-05-23T02:43:33.137Z,55771.48
2018-05-23T02:46:01.548Z,55788.95
2018-05-23T02:48:29.925Z,55757.08
2018-05-23T02:50:58.281Z,55754.00
2018-05-23T02:53:26.716Z,55751.94
2018-05-23T02:55:55.090Z,55780.73
2018-05-23T02:58:23.492Z,55785.87
2018-05-23T03:00:51.866Z,55768.39
2018-05-23T03:03:20.207Z,55797.18
2018-05-23T03:05:49.355Z,55762.22
2018-05-23T03:08:17.737Z,55768.39
2018-05-23T03:10:46.124Z,55767.36
2018-05-23T03:13:14.469Z,55769.42
2018-05-23T03:15:42.845Z,55759.14
2018-05-23T03:18:11.206Z,55800.27
2018-05-23T03:20:39.582Z,55811.57
2018-05-23T03:23:07.958Z,55767.36
2018-05-23T03:25:37.106Z,55779.70
2018-05-23T03:28:05.530Z,55782.79
2018-05-23T03:30:34.676Z,55760.17
2018-05-23T03:33:03.051Z,55806.43
2018-05-23T03:35:31.440Z,55787.93
2018-05-23T03:37:59.839Z,55787.93
2018-05-23T03:40:28.221Z,55791.01
2018-05-23T03:42:56.602Z,55808.49
2018-05-23T03:45:24.998Z,55821.86
2018-05-23T03:47:53.411Z,55815.69
2018-05-23T03:50:21.807Z,55795.12
2018-05-23T03:52:50.204Z,55818.77
2018-05-23T03:55:18.612Z,55814.66
2018-05-23T03:57:46.994Z,55802.32
2018-05-23T04:00:33.033Z,55824.94
2018-05-23T04:03:19.080Z,55804.38
2018-05-23T04:06:05.154Z,55785.87
2018-05-23T04:08:33.536Z,55794.10
2018-05-23T04:11:01.905Z,55786.90
2018-05-23T04:13:30.276Z,55763.25
2018-05-23T04:15:58.730Z,55771.48
2018-05-23T04:18:27.903Z,55789.98
2018-05-23T04:20:56.310Z,55808.49
2018-05-23T04:23:24.738Z,55805.41
2018-05-23T04:25:53.113Z,55811.57
2018-05-23T04:28:21.492Z,55773.53
2018-05-23T04:30:49.900Z,55808.49
2018-05-23T04:33:18.410Z,55795.12
2018-05-23T04:35:46.785Z,55816.71
2018-05-23T04:38:15.171Z,55751.94
2018-05-23T04:40:43.551Z,55789.98
2018-05-23T04:43:11.961Z,55800.27
2018-05-23T04:45:40.324Z,55770.45
2018-05-23T04:48:08.716Z,55797.18
2018-05-23T04:50:37.118Z,55816.71
2018-05-23T04:53:05.484Z,55816.71
2018-05-23T04:55:33.888Z,55808.49
2018-05-23T04:58:03.087Z,55796.15
2018-05-23T05:00:31.500Z,55810.55
2018-05-23T05:02:59.890Z,55796.15
2018-05-23T05:05:28.245Z,55812.60
2018-05-23T05:07:56.632Z,55808.49
2018-05-23T05:10:24.975Z,55802.32
2018-05-23T05:12:53.391Z,55805.41
2018-05-23T05:15:21.763Z,55816.71
2018-05-23T05:17:50.863Z,55806.43
2018-05-23T05:20:20.017Z,55798.21
2018-05-23T05:22:48.361Z,55803.35
2018-05-23T05:25:17.503Z,55828.02
2018-05-23T05:27:45.894Z,55822.88
2018-05-23T05:30:14.273Z,55792.04
2018-05-23T05:32:44.164Z,55798.21
2018-05-23T05:35:12.564Z,55821.86
2018-05-23T05:37:40.924Z,55796.15
2018-05-23T05:40:09.258Z,55792.04
2018-05-23T05:42:39.580Z,55792.04
2018-05-23T05:45:08.756Z,55777.64
2018-05-23T05:47:37.128Z,55744.74
2018-05-23T05:50:05.497Z,55697.45
2018-05-23T05:52:33.856Z,55701.56
2018-05-23T05:55:02.233Z,55689.22
2018-05-23T05:57:30.612Z,55650.16
2018-05-23T05:59:58.987Z,55677.91
2018-05-23T06:02:27.342Z,55679.97
2018-05-23T06:04:55.692Z,55673.80
2018-05-23T06:07:24.082Z,55649.12
2018-05-23T06:09:53.296Z,55650.16
2018-05-23T06:12:22.444Z,55679.97
2018-05-23T06:14:50.794Z,55683.05
2018-05-23T06:17:19.162Z,55686.14
2018-05-23T06:19:47.602Z,55710.82
2018-05-23T06:22:15.988Z,55687.17
2018-05-23T06:24:44.328Z,55707.73
2018-05-23T06:27:12.740Z,55709.79
2018-05-23T06:29:41.874Z,55684.08
2018-05-23T06:32:10.292Z,55703.62
2018-05-23T06:34:38.649Z,55712.87
2018-05-23T06:37:06.993Z,55683.05
2018-05-23T06:39:36.143Z,55703.62
2018-05-23T06:42:04.508Z,55783.81
2018-05-23T06:44:32.880Z,55820.83
2018-05-23T06:47:01.262Z,55815.69
2018-05-23T06:49:29.704Z,55835.22
2018-05-23T06:51:58.845Z,55820.83
2018-05-23T06:54:27.271Z,55820.83
2018-05-23T06:56:56.417Z,55827.00
2018-05-23T06:59:24.751Z,55820.83
2018-05-23T07:01:53.861Z,55825.97
2018-05-23T07:04:22.219Z,55823.91
2018-05-23T07:06:51.372Z,55802.32
2018-05-23T07:09:19.708Z,55797.18
2018-05-23T07:11:48.804Z,55813.63
2018-05-23T07:14:17.965Z,55827.00
2018-05-23T07:16:46.337Z,55823.91
2018-05-23T07:19:14.708Z,55794.10
2018-05-23T07:21:43.085Z,55806.43
2018-05-23T07:24:11.453Z,55801.29
2018-05-23T07:26:39.832Z,55824.94
2018-05-23T07:29:08.259Z,55828.02
2018-05-23T07:31:37.452Z,55843.45
2018-05-23T07:34:05.792Z,55813.63
2018-05-23T07:36:34.161Z,55792.04
2018-05-23T07:39:02.501Z,55816.71
2018-05-23T07:41:31.735Z,55812.60
2018-05-23T07:44:00.176Z,55823.91
2018-05-23T07:46:29.287Z,55838.31
2018-05-23T07:48:57.663Z,55821.86
2018-05-23T07:51:26.792Z,55821.86
2018-05-23T07:53:55.163Z,55815.69
2018-05-23T07:56:23.559Z,55807.46
2018-05-23T07:58:51.906Z,55816.71
2018-05-23T08:01:20.301Z,55807.46
2018-05-23T08:03:48.640Z,55821.86
2018-05-23T08:06:17.748Z,55819.80
2018-05-23T08:08:46.107Z,55810.55
2018-05-23T08:11:15.202Z,55802.32
2018-05-23T08:13:43.657Z,55784.84
2018-05-23T08:16:12.036Z,55787.93
2018-05-23T08:18:40.391Z,55786.90
2018-05-23T08:21:08.764Z,55774.56
2018-05-23T08:23:37.148Z,55792.04
2018-05-23T08:26:05.580Z,55817.75
2018-05-23T08:28:34.679Z,55785.87
2018-05-23T08:31:03.790Z,55787.93
2018-05-23T08:33:32.160Z,55774.56
2018-05-23T08:36:01.310Z,55766.34
2018-05-23T08:38:29.675Z,55783.81
2018-05-23T08:40:58.046Z,55777.64
2018-05-23T08:43:26.418Z,55767.36
2018-05-23T08:45:54.825Z,55761.20
2018-05-23T08:48:23.188Z,55713.90
2018-05-23T08:50:51.584Z,55708.76
2018-05-23T08:53:20.026Z,55722.12
2018-05-23T08:55:48.375Z,55677.91
2018-05-23T08:58:17.528Z,55683.05
2018-05-23T09:00:45.877Z,55685.11
2018-05-23T09:03:14.258Z,55702.59
2018-05-23T09:05:42.662Z,55705.68
2018-05-23T09:08:11.059Z,55711.84
2018-05-23T09:10:39.409Z,55706.70
2018-05-23T09:13:07.769Z,55734.46
2018-05-23T09:15:36.165Z,55748.86
2018-05-23T09:18:04.541Z,55754.00
2018-05-23T09:20:32.923Z,55721.10
2018-05-23T09:23:01.271Z,55709.79
2018-05-23T09:25:30.501Z,55687.17
2018-05-23T09:27:58.801Z,55705.68
2018-05-23T09:30:27.162Z,55684.08
2018-05-23T09:32:55.535Z,55694.36
2018-05-23T09:35:23.929Z,55693.34
2018-05-23T09:37:52.308Z,55670.72
2018-05-23T09:40:21.217Z,55646.04
2018-05-23T09:42:49.613Z,55706.70
2018-05-23T09:45:18.069Z,55697.45
2018-05-23T09:47:46.517Z,55701.56
2018-05-23T09:50:15.643Z,55672.77
2018-05-23T09:52:44.003Z,55687.17
2018-05-23T09:55:12.592Z,55699.51
2018-05-23T09:57:42.952Z,55699.51
2018-05-23T10:00:11.354Z,55706.70
2018-05-23T10:02:39.728Z,55708.76
2018-05-23T10:05:08.076Z,55670.72
2018-05-23T10:07:36.472Z,55705.68
2018-05-23T10:10:04.817Z,55695.39
2018-05-23T10:12:33.156Z,55672.77
2018-05-23T10:15:01.514Z,55714.93
2018-05-23T10:17:29.861Z,55730.35
2018-05-23T10:19:58.210Z,55772.50
2018-05-23T10:22:26.589Z,55778.67
2018-05-23T10:24:54.981Z,55775.59
2018-05-23T10:27:23.348Z,55797.18
2018-05-23T10:29:51.958Z,55799.24
2018-05-23T10:32:20.333Z,55810.55
2018-05-23T10:34:48.713Z,55792.04
2018-05-23T10:37:17.090Z,55816.71
2018-05-23T10:39:45.563Z,55827.00
2018-05-23T10:42:13.907Z,55841.39
2018-05-23T10:44:42.287Z,55801.29
2018-05-23T10:47:11.423Z,55811.57
2018-05-23T10:49:39.781Z,55825.97
2018-05-23T10:52:08.999Z,55783.81
2018-05-23T10:54:37.357Z,55795.12
2018-05-23T10:57:05.786Z,55782.79
2018-05-23T10:59:34.157Z,55763.25
2018-05-23T11:02:02.617Z,55798.21
2018-05-23T11:04:30.955Z,55808.49
2018-05-23T11:06:59.321Z,55796.15
2018-05-23T11:09:28.423Z,55808.49
2018-05-23T11:11:56.767Z,55782.79
2018-05-23T11:14:25.128Z,55793.07
2018-05-23T11:16:53.478Z,55800.27
2018-05-23T11:19:22.573Z,55804.38
2018-05-23T11:21:51.824Z,55777.64
2018-05-23T11:24:20.188Z,55789.98
2018-05-23T11:26:48.521Z,55771.48
2018-05-23T11:29:17.636Z,55761.20
2018-05-23T11:31:46.011Z,55798.21
2018-05-23T11:34:15.189Z,55748.86
2018-05-23T11:36:43.565Z,55779.70
2018-05-23T11:39:11.899Z,55782.79
2018-05-23T11:41:40.277Z,55806.43
2018-05-23T11:44:08.707Z,55807.46
2018-05-23T11:46:37.086Z,55802.32
2018-05-23T11:49:06.233Z,55823.91
2018-05-23T11:51:34.654Z,55839.34
2018-05-23T11:54:02.996Z,55810.55
2018-05-23T11:56:31.371Z,55799.24
2018-05-23T11:58:59.736Z,55808.49
2018-05-23T12:01:28.075Z,55838.31
2018-05-23T12:03:56.422Z,55806.43
2018-05-23T12:06:24.787Z,55799.24
2018-05-23T12:08:53.213Z,55788.95
2018-05-23T12:11:21.599Z,55786.90
2018-05-23T12:13:50.737Z,55812.60
2018-05-23T12:16:19.156Z,55805.41
2018-05-23T12:18:47.491Z,55818.77
2018-05-23T12:21:15.848Z,55781.76
2018-05-23T12:23:44.980Z,55792.04
2018-05-23T12:26:13.324Z,55784.84
2018-05-23T12:28:42.425Z,55814.66
2018-05-23T12:31:10.931Z,55778.67
2018-05-23T12:33:40.039Z,55780.73
2018-05-23T12:36:08.454Z,55785.87
2018-05-23T12:38:37.570Z,55800.27
2018-05-23T12:41:06.793Z,55808.49
2018-05-23T12:43:35.056Z,55788.95
2018-05-23T12:46:03.464Z,55801.29
2018-05-23T12:48:31.811Z,55797.18
2018-05-23T12:51:00.154Z,55770.45
2018-05-23T12:53:28.520Z,55773.53
2018-05-23T12:55:56.920Z,55763.25
2018-05-23T12:58:25.284Z,55747.83
2018-05-23T13:00:53.641Z,55742.69
2018-05-23T13:03:22.050Z,55746.80
2018-05-23T13:05:50.387Z,55747.83
2018-05-23T13:08:18.752Z,55737.55
2018-05-23T13:10:47.139Z,55749.89
2018-05-23T13:13:15.496Z,55736.52
2018-05-23T13:15:44.640Z,55731.38
2018-05-23T13:18:13.115Z,55750.91
2018-05-23T13:20:41.455Z,55706.70
2018-05-23T13:23:10.574Z,55720.07
2018-05-23T13:25:38.928Z,55713.90
2018-05-23T13:28:08.170Z,55737.55
2018-05-23T13:30:36.561Z,55724.18
2018-05-23T13:33:05.007Z,55734.46
2018-05-23T13:35:33.421Z,55734.46
2018-05-23T13:38:01.780Z,55762.22
2018-05-23T13:40:30.120Z,55729.32
2018-05-23T13:42:59.264Z,55741.66
2018-05-23T13:45:27.610Z,55746.80
2018-05-23T13:47:55.989Z,55750.91
2018-05-23T13:50:24.369Z,55775.59
2018-05-23T13:52:52.834Z,55761.20
2018-05-23T13:55:21.313Z,55772.50
2018-05-23T13:57:49.723Z,55782.79
2018-05-23T14:00:18.092Z,55765.31
2018-05-23T14:02:46.477Z,55781.76
2018-05-23T14:05:14.836Z,55739.60
2018-05-23T14:07:43.212Z,55754.00
2018-05-23T14:10:11.580Z,55767.36
2018-05-23T14:12:39.944Z,55760.17
2018-05-23T14:15:09.092Z,55767.36
2018-05-23T14:17:37.555Z,55741.66
2018-05-23T14:20:05.879Z,55782.79
2018-05-23T14:22:34.282Z,55806.43
2018-05-23T14:25:02.660Z,55771.48
2018-05-23T14:27:31.018Z,55793.07
2018-05-23T14:29:59.425Z,55778.67
2018-05-23T14:32:27.792Z,55771.48
2018-05-23T14:34:56.141Z,55744.74
2018-05-23T14:37:24.515Z,55765.31
2018-05-23T14:39:52.892Z,55769.42
2018-05-23T14:42:21.317Z,55764.28
2018-05-23T14:44:49.701Z,55764.28
2018-05-23T14:47:18.090Z,55748.86
2018-05-23T14:49:46.438Z,55754.00
2018-05-23T14:52:14.810Z,55750.91
2018-05-23T14:54:43.194Z,55726.24
2018-05-23T14:57:11.575Z,55764.28
2018-05-23T14:59:39.927Z,55746.80
2018-05-23T15:02:08.308Z,55781.76
2018-05-23T15:04:36.690Z,55765.31
2018-05-23T15:07:05.112Z,55778.67
2018-05-23T15:09:33.498Z,55734.46
2018-05-23T15:12:01.870Z,55768.39
2018-05-23T15:14:30.221Z,55738.57
2018-05-23T15:16:58.658Z,55714.93
2018-05-23T15:19:27.806Z,55750.91
2018-05-23T15:21:56.153Z,55740.63
2018-05-23T15:24:24.532Z,55738.57
2018-05-23T15:26:52.876Z,55769.42
2018-05-23T15:29:21.261Z,55771.48
2018-05-23T15:31:49.638Z,55763.25
2018-05-23T15:34:17.981Z,55810.55
2018-05-23T15:36:46.360Z,55794.10
2018-05-23T15:39:14.711Z,55804.38
2018-05-23T15:41:44.025Z,55802.32
2018-05-23T15:44:12.356Z,55822.88
2018-05-23T15:46:41.503Z,55777.64
2018-05-23T15:49:09.877Z,55769.42
2018-05-23T15:51:38.293Z,55784.84
2018-05-23T15:54:06.692Z,55780.73
2018-05-23T15:56:35.079Z,55800.27
2018-05-23T15:59:04.216Z,55801.29
2018-05-23T16:01:32.562Z,55792.04
2018-05-23T16:04:01.703Z,55786.90
2018-05-23T16:06:30.113Z,55778.67
2018-05-23T16:08:58.457Z,55767.36
2018-05-23T16:11:26.845Z,55787.93
2018-05-23T16:13:55.291Z,55763.25
2018-05-23T16:16:23.635Z,55762.22
2018-05-23T16:18:52.848Z,55789.98
2018-05-23T16:21:21.989Z,55781.76
2018-05-23T16:23:50.327Z,55776.62
2018-05-23T16:26:19.507Z,55771.48
2018-05-23T16:28:47.868Z,55802.32
2018-05-23T16:31:16.219Z,55785.87
2018-05-23T16:33:44.633Z,55795.12
2018-05-23T16:36:13.010Z,55800.27
2018-05-23T16:38:41.416Z,55771.48
2018-05-23T16:41:10.579Z,55803.35
2018-05-23T16:43:38.976Z,55785.87
2018-05-23T16:46:08.115Z,55793.07
2018-05-23T16:48:36.466Z,55773.53
2018-05-23T16:51:05.639Z,55807.46
2018-05-23T16:53:34.022Z,55775.59
2018-05-23T16:56:02.425Z,55830.08
2018-05-23T16:58:31.588Z,55814.66
2018-05-23T17:00:59.929Z,55834.20
2018-05-23T17:03:28.323Z,55776.62
2018-05-23T17:05:56.682Z,55827.00
2018-05-23T17:08:25.075Z,55804.38
2018-05-23T17:10:53.441Z,55798.21
2018-05-23T17:13:21.804Z,55802.32
2018-05-23T17:15:50.962Z,55811.57
2018-05-23T17:18:19.340Z,55768.39
2018-05-23T17:20:47.696Z,55787.93
2018-05-23T17:23:16.070Z,55814.66
2018-05-23T17:25:44.456Z,55800.27
2018-05-23T17:28:13.034Z,55802.32
2018-05-23T17:30:41.404Z,55804.38
2018-05-23T17:33:09.798Z,55804.38
2018-05-23T17:35:38.247Z,55789.98
2018-05-23T17:38:06.611Z,55808.49
2018-05-23T17:40:35.757Z,55822.88
2018-05-23T17:43:04.152Z,55814.66
2018-05-23T17:45:32.562Z,55769.42
2018-05-23T17:48:01.730Z,55812.60
2018-05-23T17:50:30.072Z,55786.90
2018-05-23T17:52:58.430Z,55821.86
2018-05-23T17:55:27.565Z,55846.53
2018-05-23T17:57:55.932Z,55822.88
2018-05-23T18:00:24.304Z,55809.52
2018-05-23T18:02:52.685Z,55828.02
2018-05-23T18:05:21.044Z,55800.27
2018-05-23T18:07:50.156Z,55804.38
2018-05-23T18:10:18.624Z,55844.48
2018-05-23T18:12:46.973Z,55819.80
2018-05-23T18:15:15.327Z,55843.45
2018-05-23T18:17:43.737Z,55862.98
2018-05-23T18:20:12.906Z,55839.34
2018-05-23T18:22:41.507Z,55830.08
2018-05-23T18:25:09.988Z,55837.28
2018-05-23T18:27:38.373Z,55833.17
2018-05-23T18:30:07.497Z,55862.98
2018-05-23T18:32:35.903Z,55842.42
2018-05-23T18:35:04.289Z,55839.34
2018-05-23T18:37:32.633Z,55853.73
2018-05-23T18:40:01.765Z,55828.02
2018-05-23T18:42:30.156Z,55820.83
2018-05-23T18:44:58.558Z,55816.71
2018-05-23T18:47:26.965Z,55832.14
2018-05-23T18:49:55.345Z,55836.25
2018-05-23T18:52:23.704Z,55841.39
2018-05-23T18:54:52.070Z,55825.97
2018-05-23T18:57:20.482Z,55827.00
2018-05-23T18:59:48.881Z,55837.28
2018-05-23T19:02:17.284Z,55827.00
2018-05-23T19:04:45.683Z,55807.46
2018-05-23T19:07:14.476Z,55842.42
2018-05-23T19:09:42.866Z,55815.69
2018-05-23T19:12:11.245Z,55854.76
2018-05-23T19:14:39.642Z,55818.77
2018-05-23T19:17:08.008Z,55848.59
2018-05-23T19:19:36.522Z,55820.83
2018-05-23T19:22:04.830Z,55844.48
2018-05-23T19:24:33.274Z,55842.42
2018-05-23T19:27:01.621Z,55850.64
2018-05-23T19:29:29.991Z,55851.68
2018-05-23T19:31:58.446Z,55829.05
2018-05-23T19:34:26.816Z,55822.88
2018-05-23T19:36:55.201Z,55848.59
2018-05-23T19:39:23.571Z,55835.22
2018-05-23T19:41:51.921Z,55828.02
2018-05-23T19:44:20.336Z,55840.36
2018-05-23T19:46:48.702Z,55849.62
2018-05-23T19:49:17.078Z,55838.31
2018-05-23T19:51:45.439Z,55818.77
2018-05-23T19:54:13.795Z,55831.11
2018-05-23T19:56:42.961Z,55839.34
2018-05-23T19:59:11.327Z,55854.76
2018-05-23T20:01:39.696Z,55839.34
2018-05-23T20:04:08.065Z,55864.01
2018-05-23T20:06:36.442Z,55833.17
2018-05-23T20:09:05.613Z,55852.70
2018-05-23T20:11:34.753Z,55833.17
2018-05-23T20:14:03.106Z,55857.84
2018-05-23T20:16:31.544Z,55820.83
2018-05-23T20:18:59.889Z,55823.91
2018-05-23T20:21:28.265Z,55803.35
2018-05-23T20:23:56.644Z,55839.34
2018-05-23T20:26:25.008Z,55843.45
2018-05-23T20:28:53.389Z,55851.68
2018-05-23T20:31:21.751Z,55846.53
2018-05-23T20:33:50.128Z,55859.90
2018-05-23T20:36:18.524Z,55809.52
2018-05-23T20:38:46.913Z,55856.81
2018-05-23T20:41:16.358Z,55835.22
2018-05-23T20:43:44.751Z,55839.34
2018-05-23T20:46:13.893Z,55819.80
2018-05-23T20:48:42.256Z,55822.88
2018-05-23T20:51:10.604Z,55813.63
2018-05-23T20:53:38.962Z,55844.48
2018-05-23T20:56:07.369Z,55823.91
2018-05-23T20:58:36.509Z,55841.39
2018-05-23T21:01:04.864Z,55831.11
2018-05-23T21:03:33.317Z,55835.22
2018-05-23T21:06:01.689Z,55850.64
2018-05-23T21:08:30.948Z,55818.77
2018-05-23T21:10:59.343Z,55851.68
2018-05-23T21:13:27.820Z,55842.42
2018-05-23T21:15:56.195Z,55851.68
2018-05-23T21:18:24.582Z,55857.84
2018-05-23T21:20:52.944Z,55832.14
2018-05-23T21:23:21.304Z,55849.62
2018-05-23T21:25:49.694Z,55878.41
2018-05-23T21:28:18.054Z,55857.84
2018-05-23T21:30:46.407Z,55851.68
2018-05-23T21:33:14.755Z,55873.27
2018-05-23T21:35:43.088Z,55850.64
2018-05-23T21:38:11.450Z,55831.11
2018-05-23T21:40:40.574Z,55820.83
2018-05-23T21:43:08.948Z,55824.94
2018-05-23T21:45:37.332Z,55824.94
2018-05-23T21:48:05.731Z,55847.56
2018-05-23T21:50:34.130Z,55832.14
2018-05-23T21:53:02.880Z,55841.39
2018-05-23T21:55:31.402Z,55882.52
2018-05-23T21:57:59.784Z,55856.81
2018-05-23T22:00:28.145Z,55856.81
2018-05-23T22:02:56.485Z,55871.21
2018-05-23T22:05:25.619Z,55868.12
2018-05-23T22:07:54.391Z,55850.64
2018-05-23T22:10:22.849Z,55847.56
2018-05-23T22:12:51.218Z,55876.35
2018-05-23T22:15:20.338Z,55880.46
2018-05-23T22:17:48.733Z,55874.29
2018-05-23T22:20:17.632Z,55859.90
2018-05-23T22:22:46.022Z,55840.36
2018-05-23T22:25:14.367Z,55835.22
2018-05-23T22:27:42.753Z,55859.90
2018-05-23T22:30:11.143Z,55868.12
2018-05-23T22:32:39.530Z,55858.87
2018-05-23T22:35:07.881Z,55864.01
2018-05-23T22:37:36.326Z,55868.12
2018-05-23T22:40:04.691Z,55833.17
2018-05-23T22:42:33.075Z,55849.62
2018-05-23T22:45:01.489Z,55857.84
2018-05-23T22:47:29.826Z,55886.63
2018-05-23T22:49:58.197Z,55824.94
2018-05-23T22:52:26.556Z,55836.25
2018-05-23T22:54:54.955Z,55851.68
2018-05-23T22:57:23.331Z,55874.29
2018-05-23T22:59:51.691Z,55835.22
2018-05-23T23:02:20.063Z,55847.56
2018-05-23T23:04:48.413Z,55853.73
2018-05-23T23:07:17.543Z,55856.81
2018-05-23T23:09:45.904Z,55842.42
2018-05-23T23:12:14.297Z,55857.84
2018-05-23T23:14:42.647Z,55839.34
2018-05-23T23:17:11.033Z,55840.36
2018-05-23T23:19:39.439Z,55840.36
2018-05-23T23:22:07.805Z,55834.20
2018-05-23T23:24:36.163Z,55824.94
2018-05-23T23:27:04.529Z,55853.73
2018-05-23T23:29:33.687Z,55862.98
2018-05-23T23:32:02.061Z,55839.34
2018-05-23T23:34:30.434Z,55828.02
2018-05-23T23:36:58.903Z,55837.28
2018-05-23T23:39:27.282Z,55810.55
2018-05-23T23:41:55.622Z,55831.11
2018-05-23T23:44:24.718Z,55833.17
2018-05-23T23:46:53.941Z,55833.17
2018-05-23T23:49:22.288Z,55804.38
2018-05-23T23:51:51.393Z,55821.86
2018-05-23T23:54:20.540Z,55836.25
2018-05-23T23:56:49.671Z,55831.11
2018-05-23T23:59:18.102Z,55836.25
